Time;durP1;ratioP1;P1;durP2;ratioP2;P2;SDS_P1;SDS_P2;PMS_P1;PMS_P2;Temp;Humidity;BMP_temperature;BMP_pressure;BME280_temperature;BME280_humidity;BME280_pressure;Samples;Min_cycle;Max_cycle;Signal;HPM_P1;HPM_P2
2023/04/22 00:01:43;;;;;;;4.45;2.70;;;16.10;67.10;;;;;;10265538;28;20023;-56
2023/04/22 00:06:44;;;;;;;3.53;2.60;;;16.10;66.90;;;;;;10282855;28;20562;-57
2023/04/22 00:11:45;;;;;;;5.03;2.47;;;16.10;66.90;;;;;;10265569;28;20019;-56
2023/04/22 00:16:45;;;;;;;4.22;2.30;;;16.10;66.80;;;;;;10270901;28;20097;-57
2023/04/22 00:21:46;;;;;;;3.95;2.50;;;16.10;66.80;;;;;;10290487;28;20650;-56
2023/04/22 00:26:46;;;;;;;3.67;2.65;;;16.00;66.70;;;;;;10289452;28;20132;-56
2023/04/22 00:31:47;;;;;;;4.15;2.58;;;16.00;66.70;;;;;;10289766;28;20030;-56
2023/04/22 00:36:48;;;;;;;3.20;2.10;;;16.00;66.60;;;;;;10289875;28;20019;-56
2023/04/22 00:41:49;;;;;;;3.72;2.50;;;16.00;66.60;;;;;;10272243;28;20019;-56
2023/04/22 00:46:50;;;;;;;2.55;2.13;;;16.00;66.60;;;;;;10289076;28;20047;-56
2023/04/22 00:51:51;;;;;;;3.08;2.40;;;16.00;66.50;;;;;;10289662;28;20085;-56
2023/04/22 00:56:52;;;;;;;4.13;2.65;;;16.00;66.50;;;;;;10288910;28;20018;-56
2023/04/22 01:01:53;;;;;;;2.60;2.00;;;16.00;66.40;;;;;;10288847;28;20030;-56
2023/04/22 01:06:53;;;;;;;2.78;2.28;;;16.00;66.30;;;;;;10271285;28;20027;-56
2023/04/22 01:11:55;;;;;;;3.38;1.75;;;15.90;66.20;;;;;;10288685;28;20108;-57
2023/04/22 01:16:56;;;;;;;4.13;2.17;;;15.90;66.10;;;;;;10270930;28;20105;-56
2023/04/22 01:21:58;;;;;;;3.33;2.10;;;15.90;66.10;;;;;;10288127;28;20026;-57
2023/04/22 01:26:58;;;;;;;2.60;1.90;;;15.90;66.00;;;;;;10269878;28;20065;-55
2023/04/22 01:31:59;;;;;;;3.45;2.25;;;15.90;66.00;;;;;;10270584;28;20029;-54
2023/04/22 01:37:00;;;;;;;2.92;2.30;;;15.90;66.00;;;;;;10270317;28;20407;-55
2023/04/22 01:42:02;;;;;;;2.95;1.92;;;15.90;65.90;;;;;;10269812;28;20027;-56
2023/04/22 01:47:04;;;;;;;3.55;2.33;;;15.90;65.80;;;;;;10269809;28;20045;-56
2023/04/22 01:52:04;;;;;;;2.63;2.03;;;15.80;66.30;;;;;;10287000;28;20030;-56
2023/04/22 01:57:12;;;;;;;2.35;2.00;;;15.80;65.60;;;;;;10269393;28;20106;-57
2023/04/22 02:02:13;;;;;;;3.72;2.03;;;15.80;65.60;;;;;;10269410;28;20015;-57
2023/04/22 02:07:14;;;;;;;2.65;2.00;;;15.80;65.50;;;;;;10286148;28;20079;-55
2023/04/22 02:12:14;;;;;;;3.50;1.83;;;15.80;65.50;;;;;;10286037;28;20022;-55
2023/04/22 02:17:16;;;;;;;2.85;1.58;;;15.80;65.40;;;;;;10268828;28;20110;-56
2023/04/22 02:22:18;;;;;;;2.95;2.25;;;15.80;65.40;;;;;;10285772;28;20019;-56
2023/04/22 02:27:19;;;;;;;2.45;1.63;;;15.80;65.40;;;;;;10267920;28;20042;-56
2023/04/22 02:32:19;;;;;;;3.08;1.52;;;15.80;65.30;;;;;;10285177;28;20703;-55
2023/04/22 02:37:21;;;;;;;2.22;1.50;;;15.80;65.30;;;;;;10284872;28;20113;-56
2023/04/22 02:42:22;;;;;;;2.50;1.90;;;15.70;65.30;;;;;;10284809;28;20027;-57
2023/04/22 02:47:23;;;;;;;3.15;2.00;;;15.70;65.20;;;;;;10284529;28;20047;-56
2023/04/22 02:52:24;;;;;;;2.30;1.80;;;15.70;65.20;;;;;;10284517;28;20058;-56
2023/04/22 02:57:24;;;;;;;3.63;1.83;;;15.70;65.10;;;;;;10284418;28;20019;-56
2023/04/22 03:02:25;;;;;;;4.43;1.83;;;15.70;65.00;;;;;;10266874;28;20046;-57
2023/04/22 03:07:26;;;;;;;2.92;2.10;;;15.70;65.10;;;;;;10266568;28;20450;-56
2023/04/22 03:12:27;;;;;;;2.25;1.58;;;15.70;65.10;;;;;;10266632;28;20047;-56
2023/04/22 03:17:27;;;;;;;3.20;1.90;;;15.70;65.10;;;;;;10284303;28;20050;-56
2023/04/22 03:22:28;;;;;;;2.13;1.60;;;15.70;65.10;;;;;;10266146;28;20046;-56
2023/04/22 03:27:29;;;;;;;2.53;1.73;;;15.70;65.10;;;;;;10283647;28;20126;-55
2023/04/22 03:32:29;;;;;;;1.98;1.58;;;15.70;65.10;;;;;;10283144;28;20047;-56
2023/04/22 03:37:30;;;;;;;3.17;2.03;;;15.70;65.00;;;;;;10283437;28;20114;-56
2023/04/22 03:42:31;;;;;;;2.55;1.73;;;15.60;65.00;;;;;;10283403;28;20066;-56
2023/04/22 03:47:31;;;;;;;3.28;2.05;;;15.60;65.00;;;;;;10281538;28;20046;-57
2023/04/22 03:52:32;;;;;;;3.28;2.40;;;15.60;65.20;;;;;;10273332;28;20042;-56
2023/04/22 03:57:32;;;;;;;4.00;2.25;;;15.60;65.30;;;;;;10273978;28;20110;-57
2023/04/22 04:02:33;;;;;;;3.47;2.45;;;15.60;65.40;;;;;;10270668;28;20054;-56
2023/04/22 04:07:34;;;;;;;3.42;2.50;;;15.60;65.50;;;;;;10273836;28;20107;-55
2023/04/22 04:12:34;;;;;;;3.10;2.15;;;15.60;65.60;;;;;;10290831;28;20023;-57
2023/04/22 04:17:35;;;;;;;3.55;2.50;;;15.60;65.60;;;;;;10271781;28;20015;-57
2023/04/22 04:22:37;;;;;;;2.58;1.98;;;15.60;65.70;;;;;;10288979;28;20114;-56
2023/04/22 04:27:40;;;;;;;3.55;2.63;;;15.60;65.80;;;;;;10290398;28;20127;-56
2023/04/22 04:32:41;;;;;;;3.40;3.03;;;15.70;66.00;;;;;;10289203;28;20023;-56
2023/04/22 04:37:42;;;;;;;3.40;2.47;;;15.80;65.70;;;;;;10272650;28;20094;-57
2023/04/22 04:42:43;;;;;;;4.25;2.85;;;16.00;65.40;;;;;;10289754;28;20023;-56
2023/04/22 04:47:45;;;;;;;4.40;2.78;;;16.00;65.10;;;;;;10289588;28;20125;-56
2023/04/22 04:52:47;;;;;;;4.32;3.33;;;16.00;65.10;;;;;;10289126;28;20015;-56
2023/04/22 04:57:48;;;;;;;14.80;4.15;;;16.00;65.10;;;;;;10289419;28;20019;-54
2023/04/22 05:02:49;;;;;;;9.88;4.38;;;16.00;65.20;;;;;;10287846;28;20702;-56
2023/04/22 05:07:50;;;;;;;10.90;4.05;;;16.00;66.20;;;;;;10280663;28;20488;-54
2023/04/22 05:12:51;;;;;;;8.18;3.47;;;16.00;66.00;;;;;;10278858;28;20038;-55
2023/04/22 05:17:53;;;;;;;8.00;3.10;;;16.20;66.40;;;;;;10284339;28;20039;-56
2023/04/22 05:22:54;;;;;;;9.32;3.88;;;16.20;66.50;;;;;;10285573;28;20163;-57
2023/04/22 05:27:54;;;;;;;7.65;3.00;;;16.10;66.60;;;;;;10284998;28;20171;-56
2023/04/22 05:32:55;;;;;;;25.40;6.70;;;16.10;67.50;;;;;;10285803;28;20055;-55
2023/04/22 05:37:56;;;;;;;13.40;4.50;;;16.20;68.00;;;;;;10287351;28;20102;-56
2023/04/22 05:42:56;;;;;;;17.25;5.75;;;16.20;67.60;;;;;;10287195;28;20554;-56
2023/04/22 05:47:57;;;;;;;15.35;4.60;;;16.20;67.80;;;;;;10286607;28;20046;-55
2023/04/22 05:52:58;;;;;;;16.48;4.65;;;16.20;67.80;;;;;;10287474;28;20390;-56
2023/04/22 05:57:58;;;;;;;13.80;4.03;;;16.20;68.00;;;;;;10302367;28;20126;-52
2023/04/22 06:02:59;;;;;;;23.20;5.80;;;16.20;67.90;;;;;;10258954;28;20080;-56
2023/04/22 06:08:00;;;;;;;20.75;6.15;;;16.10;67.80;;;;;;10268183;28;20109;-58
2023/04/22 06:13:00;;;;;;;34.42;8.63;;;16.10;67.90;;;;;;10285376;28;20054;-58
2023/04/22 06:18:01;;;;;;;21.67;8.00;;;16.10;68.00;;;;;;10283955;28;20449;-58
2023/04/22 06:23:04;;;;;;;21.30;7.05;;;16.10;69.40;;;;;;10281812;28;20051;-56
2023/04/22 06:28:04;;;;;;;39.72;7.45;;;16.20;68.80;;;;;;10253882;28;20388;-54
2023/04/22 06:33:05;;;;;;;22.30;6.25;;;16.10;69.10;;;;;;10283067;28;20023;-57
2023/04/22 06:38:06;;;;;;;18.30;5.82;;;16.20;69.80;;;;;;10282499;28;20054;-57
2023/04/22 06:43:06;;;;;;;15.27;6.50;;;16.10;69.60;;;;;;10286564;28;20046;-57
2023/04/22 06:48:07;;;;;;;18.35;7.25;;;16.10;69.80;;;;;;10275320;28;20078;-58
2023/04/22 06:53:08;;;;;;;18.15;6.25;;;16.20;69.10;;;;;;10255816;28;20054;-56
2023/04/22 06:58:09;;;;;;;10.20;5.10;;;16.10;69.20;;;;;;10266704;28;20015;-57
2023/04/22 07:03:10;;;;;;;16.70;5.72;;;16.00;69.20;;;;;;10283911;28;20047;-58
2023/04/22 07:08:11;;;;;;;15.15;6.30;;;16.00;69.00;;;;;;10276589;28;20035;-56
2023/04/22 07:13:11;;;;;;;14.50;6.18;;;16.00;68.90;;;;;;10278690;28;20061;-56
2023/04/22 07:18:12;;;;;;;15.55;7.28;;;16.00;68.90;;;;;;10272010;28;20114;-57
2023/04/22 07:23:12;;;;;;;13.32;5.65;;;16.00;69.00;;;;;;10264642;28;20106;-56
2023/04/22 07:28:13;;;;;;;18.65;7.25;;;16.10;69.30;;;;;;10281585;28;20071;-53
2023/04/22 07:33:14;;;;;;;12.15;6.38;;;16.00;68.70;;;;;;10282005;28;20030;-55
2023/04/22 07:38:15;;;;;;;11.43;6.22;;;16.00;68.90;;;;;;10281870;28;20022;-56
2023/04/22 07:43:16;;;;;;;13.48;7.10;;;16.10;69.20;;;;;;10280810;28;20033;-56
2023/04/22 07:48:17;;;;;;;19.42;9.55;;;16.10;69.10;;;;;;10263934;28;20479;-54
2023/04/22 07:53:17;;;;;;;11.70;7.55;;;16.00;69.00;;;;;;10280910;28;20030;-54
2023/04/22 07:58:18;;;;;;;16.58;10.85;;;16.00;69.10;;;;;;10280656;28;20047;-56
2023/04/22 08:03:19;;;;;;;11.68;8.82;;;16.10;70.50;;;;;;10282134;28;20027;-56
2023/04/22 08:08:19;;;;;;;11.85;7.57;;;16.20;69.00;;;;;;10280929;28;20077;-56
2023/04/22 08:13:20;;;;;;;15.07;8.10;;;16.10;69.00;;;;;;10277522;28;20135;-55
2023/04/22 08:18:21;;;;;;;12.07;7.93;;;16.10;69.20;;;;;;10260099;28;20101;-56
2023/04/22 08:23:22;;;;;;;13.73;8.90;;;16.10;69.20;;;;;;10278908;28;20030;-55
2023/04/22 08:28:23;;;;;;;11.98;7.78;;;16.20;69.40;;;;;;10225581;28;20038;-55
2023/04/22 08:33:23;;;;;;;12.60;7.90;;;16.10;69.30;;;;;;10280241;28;20023;-54
2023/04/22 08:38:24;;;;;;;10.75;8.50;;;16.20;69.30;;;;;;10276247;28;20097;-56
2023/04/22 08:43:25;;;;;;;12.88;8.63;;;16.20;69.30;;;;;;10287030;28;20015;-55
2023/04/22 08:48:26;;;;;;;10.07;7.60;;;16.20;69.30;;;;;;10287224;28;20530;-55
2023/04/22 08:53:27;;;;;;;9.52;6.88;;;16.20;69.30;;;;;;10287147;28;20693;-56
2023/04/22 08:58:28;;;;;;;10.95;7.15;;;16.20;69.30;;;;;;10286289;28;20027;-55
2023/04/22 09:03:30;;;;;;;15.68;7.68;;;16.20;69.30;;;;;;10269467;28;20027;-55
2023/04/22 09:08:31;;;;;;;11.48;6.95;;;16.20;69.40;;;;;;10269666;28;20026;-54
2023/04/22 09:13:33;;;;;;;9.55;7.22;;;16.30;69.40;;;;;;10286601;28;20011;-53
2023/04/22 09:18:46;;;;;;;10.73;7.00;;;16.30;69.40;;;;;;10286070;28;20101;-54
2023/04/22 09:23:53;;;;;;;10.30;6.35;;;16.30;69.40;;;;;;10286022;28;20026;-55
2023/04/22 09:28:58;;;;;;;7.53;5.72;;;16.30;69.40;;;;;;10285873;28;20034;-54
2023/04/22 09:33:59;;;;;;;9.40;6.25;;;16.30;69.40;;;;;;10285090;28;20019;-55
2023/04/22 09:39:05;;;;;;;7.30;5.80;;;16.30;69.30;;;;;;10284641;28;20078;-55
2023/04/22 09:44:19;;;;;;;8.98;5.57;;;16.30;69.30;;;;;;10286135;28;20021;-54
2023/04/22 09:49:20;;;;;;;7.50;5.28;;;16.40;69.30;;;;;;10284219;28;20400;-56
2023/04/22 09:54:22;;;;;;;7.38;5.57;;;16.40;69.30;;;;;;10285117;28;20023;-56
2023/04/22 09:59:28;;;;;;;7.97;5.05;;;16.40;69.20;;;;;;10284513;28;20035;-56
2023/04/22 10:04:30;;;;;;;10.63;5.70;;;16.40;69.20;;;;;;10286440;28;20030;-55
2023/04/22 10:09:31;;;;;;;11.20;5.35;;;16.40;69.30;;;;;;10286375;28;20027;-57
2023/04/22 10:14:32;;;;;;;16.77;6.65;;;16.50;69.40;;;;;;10269098;28;20098;-56
2023/04/22 10:19:34;;;;;;;14.57;5.25;;;16.60;70.70;;;;;;10284937;28;20019;-56
2023/04/22 10:24:38;;;;;;;12.85;4.88;;;17.00;70.20;;;;;;10267324;28;20025;-56
2023/04/22 10:29:41;;;;;;;10.63;4.63;;;16.90;70.00;;;;;;10268122;28;20038;-55
2023/04/22 10:34:45;;;;;;;13.27;6.80;;;16.90;68.70;;;;;;10284136;28;20041;-56
2023/04/22 10:40:09;;;;;;;15.63;4.70;;;16.80;69.30;;;;;;10281637;28;20150;-56
2023/04/22 10:45:14;;;;;;;11.63;5.25;;;16.70;69.70;;;;;;10279307;28;20106;-57
2023/04/22 10:50:26;;;;;;;11.63;5.82;;;16.70;70.00;;;;;;10262521;28;20028;-57
2023/04/22 10:55:51;;;;;;;11.57;4.43;;;16.70;69.90;;;;;;10279822;28;20102;-57
2023/04/22 11:00:58;;;;;;;10.10;5.25;;;16.70;69.80;;;;;;10281761;28;20390;-57
2023/04/22 11:06:29;;;;;;;12.43;4.55;;;16.70;69.70;;;;;;10282440;28;20482;-56
2023/04/22 11:11:29;;;;;;;9.93;4.43;;;16.70;69.70;;;;;;10265735;28;20054;-56
2023/04/22 11:16:30;;;;;;;7.40;3.90;;;16.70;69.50;;;;;;10282227;28;20475;-57
2023/04/22 11:21:31;;;;;;;9.70;5.28;;;16.70;69.50;;;;;;10281866;28;20031;-57
2023/04/22 11:26:36;;;;;;;7.20;4.78;;;16.70;69.70;;;;;;10264649;28;20455;-57
2023/04/22 11:31:37;;;;;;;12.30;5.28;;;16.70;69.70;;;;;;10281269;28;20233;-56
2023/04/22 11:36:41;;;;;;;11.07;5.65;;;16.70;69.60;;;;;;10281425;28;20441;-56
2023/04/22 11:41:42;;;;;;;7.05;4.70;;;16.70;69.50;;;;;;10264650;28;20378;-56
2023/04/22 11:46:43;;;;;;;6.20;4.45;;;16.60;69.60;;;;;;10281028;28;20038;-55
2023/04/22 11:51:55;;;;;;;8.20;5.13;;;16.60;69.70;;;;;;10281195;28;20026;-57
2023/04/22 11:56:56;;;;;;;7.93;4.43;;;16.50;69.60;;;;;;10281310;28;20467;-56
2023/04/22 12:01:56;;;;;;;5.97;5.25;;;16.50;69.70;;;;;;10280756;28;20026;-56
2023/04/22 12:06:57;;;;;;;6.03;4.85;;;16.50;69.80;;;;;;10280680;28;20315;-53
2023/04/22 12:11:58;;;;;;;7.57;5.60;;;16.40;69.70;;;;;;10267773;28;20122;-57
2023/04/22 12:17:04;;;;;;;6.30;5.25;;;16.40;69.70;;;;;;10288450;28;20637;-57
2023/04/22 12:22:05;;;;;;;5.38;4.85;;;16.40;69.70;;;;;;10288577;28;20026;-57
2023/04/22 12:27:05;;;;;;;6.03;4.80;;;16.40;69.80;;;;;;10288133;28;20114;-54
2023/04/22 12:32:06;;;;;;;5.28;3.75;;;16.40;69.80;;;;;;10270804;28;20067;-56
2023/04/22 12:37:07;;;;;;;5.70;4.10;;;16.40;69.80;;;;;;10288142;28;20118;-55
2023/04/22 12:42:07;;;;;;;5.80;4.45;;;16.40;69.70;;;;;;10287595;28;20026;-56
2023/04/22 12:47:08;;;;;;;6.45;4.10;;;16.40;69.80;;;;;;10286957;28;20138;-56
2023/04/22 12:52:09;;;;;;;4.68;3.58;;;16.40;69.90;;;;;;10287423;28;20042;-55
2023/04/22 12:57:10;;;;;;;5.22;3.88;;;16.40;69.90;;;;;;10287387;28;20027;-56
2023/04/22 13:02:11;;;;;;;6.72;3.78;;;16.40;69.90;;;;;;10287117;28;20158;-56
2023/04/22 13:07:12;;;;;;;9.15;4.35;;;16.40;70.00;;;;;;10287075;28;20194;-55
2023/04/22 13:12:12;;;;;;;5.70;4.13;;;16.30;70.00;;;;;;10286677;28;20482;-55
2023/04/22 13:17:13;;;;;;;5.47;4.25;;;16.30;70.00;;;;;;10286542;28;20439;-55
2023/04/22 13:22:14;;;;;;;6.53;4.38;;;16.30;70.00;;;;;;10268612;28;20107;-56
2023/04/22 13:27:15;;;;;;;6.30;3.95;;;16.30;70.10;;;;;;10286001;28;20576;-56
2023/04/22 13:32:16;;;;;;;5.45;3.58;;;16.30;70.40;;;;;;10285732;28;20043;-56
2023/04/22 13:37:19;;;;;;;5.07;3.58;;;16.20;70.10;;;;;;10285924;28;20102;-56
2023/04/22 13:42:20;;;;;;;5.20;3.60;;;16.20;70.10;;;;;;10285472;28;20050;-54
2023/04/22 13:47:20;;;;;;;6.25;3.90;;;16.20;70.20;;;;;;10285668;28;20065;-56
2023/04/22 13:52:21;;;;;;;4.05;3.55;;;16.20;70.20;;;;;;10285503;28;20041;-57
2023/04/22 13:57:22;;;;;;;8.85;4.13;;;16.20;70.30;;;;;;10284991;28;20178;-57
2023/04/22 14:02:22;;;;;;;6.28;4.00;;;16.20;70.40;;;;;;10284697;28;20640;-56
2023/04/22 14:07:23;;;;;;;5.35;4.30;;;16.20;70.20;;;;;;10284993;28;20040;-55
2023/04/22 14:12:24;;;;;;;5.22;3.78;;;16.20;70.20;;;;;;10251044;28;20110;-56
2023/04/22 14:17:26;;;;;;;5.15;3.90;;;16.20;70.30;;;;;;10266675;28;20522;-56
2023/04/22 14:22:27;;;;;;;5.47;3.72;;;16.20;70.30;;;;;;10284086;28;20026;-56
2023/04/22 14:27:27;;;;;;;4.15;3.50;;;16.20;70.40;;;;;;10284238;28;20019;-54
2023/04/22 14:32:28;;;;;;;5.82;4.07;;;16.20;70.30;;;;;;10283235;28;20445;-56
2023/04/22 14:37:30;;;;;;;4.75;3.95;;;16.20;70.50;;;;;;10283243;28;20363;-56
2023/04/22 14:42:31;;;;;;;7.55;3.78;;;16.20;71.00;;;;;;10283042;28;20019;-56
2023/04/22 14:47:32;;;;;;;4.90;3.67;;;16.20;70.40;;;;;;10282824;28;20045;-55
2023/04/22 14:52:32;;;;;;;7.88;4.10;;;16.20;70.50;;;;;;10283161;28;20034;-56
2023/04/22 14:57:33;;;;;;;6.93;4.53;;;16.20;70.40;;;;;;10265624;28;20390;-56
2023/04/22 15:02:34;;;;;;;4.47;3.60;;;16.20;70.40;;;;;;10282703;28;20403;-54
2023/04/22 15:07:35;;;;;;;4.68;3.95;;;16.20;70.50;;;;;;10282055;28;20070;-56
2023/04/22 15:12:35;;;;;;;5.28;3.70;;;16.20;70.60;;;;;;10282750;28;20564;-56
2023/04/22 15:17:36;;;;;;;5.00;3.35;;;16.20;70.50;;;;;;10282536;28;20019;-56
2023/04/22 15:22:39;;;;;;;4.57;3.67;;;16.20;70.50;;;;;;10281871;28;20027;-54
2023/04/22 15:27:40;;;;;;;5.13;3.63;;;16.20;70.50;;;;;;10281425;28;20149;-56
2023/04/22 15:32:41;;;;;;;5.47;3.95;;;16.20;70.50;;;;;;10280653;28;20090;-55
2023/04/22 15:37:44;;;;;;;4.20;3.08;;;16.10;70.50;;;;;;10281204;28;20054;-56
2023/04/22 15:42:44;;;;;;;6.97;4.45;;;16.20;70.50;;;;;;10264126;28;20403;-57
2023/04/22 15:47:46;;;;;;;6.47;3.60;;;16.10;70.50;;;;;;10280294;28;21973;-56
2023/04/22 15:52:46;;;;;;;5.03;3.67;;;16.10;70.70;;;;;;10281381;28;20026;-56
2023/04/22 15:57:47;;;;;;;5.13;3.47;;;16.10;70.80;;;;;;10281053;28;20035;-55
2023/04/22 16:02:53;;;;;;;5.53;3.78;;;16.10;70.60;;;;;;10280174;28;20026;-56
2023/04/22 16:07:55;;;;;;;4.60;3.72;;;16.10;70.80;;;;;;10264840;28;20089;-56
2023/04/22 16:12:55;;;;;;;4.40;3.60;;;16.10;70.70;;;;;;10281278;28;20019;-56
2023/04/22 16:17:56;;;;;;;5.55;4.07;;;16.10;70.60;;;;;;10280804;28;20474;-55
2023/04/22 16:22:57;;;;;;;5.20;3.72;;;16.10;70.70;;;;;;10280712;28;20419;-55
2023/04/22 16:27:58;;;;;;;5.13;4.43;;;16.10;70.60;;;;;;10263052;28;20038;-55
2023/04/22 16:32:59;;;;;;;4.95;3.58;;;16.10;70.70;;;;;;10280422;28;20094;-56
2023/04/22 16:38:00;;;;;;;7.85;4.35;;;16.10;71.00;;;;;;10279658;28;20037;-57
2023/04/22 16:43:04;;;;;;;6.25;3.95;;;16.20;71.80;;;;;;10280219;28;20103;-56
2023/04/22 16:48:04;;;;;;;7.95;3.90;;;16.40;72.00;;;;;;10280307;28;20453;-57
2023/04/22 16:53:07;;;;;;;10.30;4.63;;;16.40;71.80;;;;;;10280367;28;20023;-56
2023/04/22 16:58:08;;;;;;;8.00;5.25;;;16.40;71.90;;;;;;10284327;28;20022;-56
2023/04/22 17:03:10;;;;;;;17.42;6.75;;;16.40;72.20;;;;;;10286754;28;20414;-57
2023/04/22 17:08:11;;;;;;;12.10;4.20;;;16.40;73.40;;;;;;10269427;28;20425;-55
2023/04/22 17:13:13;;;;;;;10.73;6.50;;;16.40;72.30;;;;;;10286941;28;20099;-55
2023/04/22 17:18:13;;;;;;;13.15;5.90;;;16.30;72.70;;;;;;10286634;28;20019;-55
2023/04/22 17:23:15;;;;;;;13.93;5.13;;;16.30;73.00;;;;;;10285523;28;20035;-57
2023/04/22 17:28:15;;;;;;;12.27;5.03;;;16.20;72.80;;;;;;10285543;28;20027;-56
2023/04/22 17:33:16;;;;;;;12.35;5.15;;;16.20;73.00;;;;;;10286106;28;20109;-56
2023/04/22 17:38:17;;;;;;;17.70;5.68;;;16.20;73.30;;;;;;10285772;28;20096;-55
2023/04/22 17:43:17;;;;;;;11.27;5.70;;;16.20;73.20;;;;;;10285828;28;20045;-56
2023/04/22 17:48:18;;;;;;;8.90;6.38;;;16.20;73.20;;;;;;10286698;28;20988;-56
2023/04/22 17:53:19;;;;;;;12.55;5.95;;;16.20;73.10;;;;;;10287262;28;20011;-56
2023/04/22 17:58:19;;;;;;;9.02;6.50;;;16.20;73.10;;;;;;10287129;28;20130;-56
2023/04/22 18:03:20;;;;;;;11.05;6.35;;;16.10;72.90;;;;;;10286250;28;20109;-55
2023/04/22 18:08:21;;;;;;;7.10;5.80;;;16.20;72.90;;;;;;10285595;28;20555;-56
2023/04/22 18:13:22;;;;;;;13.13;5.93;;;16.20;72.70;;;;;;10286925;28;20026;-56
2023/04/22 18:18:22;;;;;;;12.45;5.65;;;16.10;72.50;;;;;;10286859;28;20061;-58
2023/04/22 18:23:23;;;;;;;8.57;6.40;;;16.20;72.80;;;;;;10285511;28;20057;-58
2023/04/22 18:28:24;;;;;;;10.00;5.95;;;16.30;72.50;;;;;;10284411;28;20561;-55
2023/04/22 18:33:25;;;;;;;16.00;6.57;;;16.30;72.50;;;;;;10268612;28;20050;-57
2023/04/22 18:38:26;;;;;;;11.98;6.80;;;16.40;72.70;;;;;;10284831;28;20238;-56
2023/04/22 18:43:26;;;;;;;10.57;6.40;;;16.30;72.40;;;;;;10284306;28;20026;-57
2023/04/22 18:48:27;;;;;;;12.15;7.55;;;16.40;72.50;;;;;;10284884;28;20403;-57
2023/04/22 18:53:28;;;;;;;12.40;7.22;;;16.40;72.70;;;;;;10285141;28;20058;-57
2023/04/22 18:58:28;;;;;;;10.90;6.53;;;16.40;72.50;;;;;;10284887;28;20930;-53
2023/04/22 19:03:30;;;;;;;9.75;7.95;;;16.40;72.50;;;;;;10284840;28;20058;-56
2023/04/22 19:08:31;;;;;;;10.77;6.43;;;16.40;72.70;;;;;;10266296;28;20807;-56
2023/04/22 19:13:32;;;;;;;13.38;7.50;;;16.50;72.40;;;;;;10281256;28;20025;-54
2023/04/22 19:18:33;;;;;;;11.05;6.93;;;16.40;72.40;;;;;;10281032;28;20096;-56
2023/04/22 19:23:33;;;;;;;12.02;6.68;;;16.40;72.30;;;;;;10282821;28;20058;-55
2023/04/22 19:28:35;;;;;;;12.48;7.43;;;16.40;71.90;;;;;;10266255;28;20523;-56
2023/04/22 19:33:36;;;;;;;9.95;6.13;;;16.30;71.90;;;;;;10283365;28;20489;-56
2023/04/22 19:38:36;;;;;;;10.30;6.75;;;16.20;72.30;;;;;;10283507;28;20118;-55
2023/04/22 19:43:39;;;;;;;8.38;5.85;;;16.20;72.10;;;;;;10282535;28;20099;-56
2023/04/22 19:48:40;;;;;;;7.55;6.63;;;16.10;72.10;;;;;;10281550;28;20142;-55
2023/04/22 19:53:40;;;;;;;7.47;5.25;;;16.10;72.00;;;;;;10281096;28;20675;-56
2023/04/22 19:58:41;;;;;;;6.22;5.22;;;16.10;71.90;;;;;;10281214;28;20082;-56
2023/04/22 20:03:42;;;;;;;8.43;5.30;;;16.00;71.70;;;;;;10263394;28;20852;-56
2023/04/22 20:08:43;;;;;;;8.98;5.25;;;16.00;71.60;;;;;;10281680;28;20035;-55
2023/04/22 20:13:45;;;;;;;10.40;4.85;;;16.00;71.60;;;;;;10283143;28;20486;-56
2023/04/22 20:18:45;;;;;;;7.00;3.80;;;16.00;71.50;;;;;;10265529;28;20035;-56
2023/04/22 20:23:48;;;;;;;8.23;5.82;;;16.00;71.40;;;;;;10282719;28;20027;-56
2023/04/22 20:28:53;;;;;;;5.35;3.35;;;16.00;71.40;;;;;;10265195;28;20026;-54
2023/04/22 20:33:54;;;;;;;5.53;3.55;;;16.00;71.30;;;;;;10272895;28;20363;-56
2023/04/22 20:38:58;;;;;;;9.20;5.90;;;15.90;71.20;;;;;;10288999;28;20019;-56
2023/04/22 20:43:58;;;;;;;7.90;5.70;;;15.90;71.30;;;;;;10272803;28;20019;-54
2023/04/22 20:48:59;;;;;;;4.50;3.33;;;15.90;71.20;;;;;;10289467;28;20446;-56
2023/04/22 20:54:00;;;;;;;7.30;4.65;;;15.90;71.20;;;;;;10289602;28;20411;-54
2023/04/22 20:59:01;;;;;;;8.85;4.50;;;15.90;71.20;;;;;;10289332;28;20098;-54
2023/04/22 21:04:02;;;;;;;7.13;4.70;;;15.90;71.20;;;;;;10271918;28;20110;-55
2023/04/22 21:09:06;;;;;;;6.20;4.75;;;15.90;71.20;;;;;;10288935;28;20027;-55
2023/04/22 21:14:07;;;;;;;10.20;6.97;;;15.90;71.10;;;;;;10287506;28;20660;-56
2023/04/22 21:19:08;;;;;;;6.72;4.30;;;15.90;71.10;;;;;;10288584;28;20019;-54
2023/04/22 21:24:09;;;;;;;7.43;4.72;;;15.90;71.10;;;;;;10270993;28;20073;-53
2023/04/22 21:29:10;;;;;;;7.55;5.35;;;15.80;71.00;;;;;;10270801;28;20498;-55
2023/04/22 21:34:11;;;;;;;6.97;6.03;;;15.80;71.00;;;;;;10288086;28;20023;-55
2023/04/22 21:39:12;;;;;;;9.20;7.30;;;15.80;71.00;;;;;;10287773;28;20057;-56
2023/04/22 21:44:14;;;;;;;11.68;8.20;;;15.90;71.00;;;;;;10286515;28;20018;-55
2023/04/22 21:49:14;;;;;;;10.25;7.80;;;15.80;70.80;;;;;;10269777;28;20159;-56
2023/04/22 21:54:16;;;;;;;10.55;8.35;;;15.80;70.90;;;;;;10285694;28;20105;-55
2023/04/22 21:59:16;;;;;;;16.73;12.23;;;15.80;70.60;;;;;;10286892;28;20025;-56
2023/04/22 22:04:17;;;;;;;13.82;11.77;;;15.80;70.50;;;;;;10286968;28;20027;-56
2023/04/22 22:09:18;;;;;;;15.70;12.88;;;15.80;70.40;;;;;;10286737;28;20038;-55
2023/04/22 22:14:18;;;;;;;16.10;12.90;;;15.80;70.10;;;;;;10285035;28;20023;-55
2023/04/22 22:19:19;;;;;;;19.15;14.57;;;15.70;69.80;;;;;;10268952;28;20064;-56
2023/04/22 22:24:20;;;;;;;14.63;12.63;;;15.70;69.70;;;;;;10268643;28;20021;-56
2023/04/22 22:29:20;;;;;;;18.75;14.02;;;15.70;69.60;;;;;;10268246;28;20118;-54
2023/04/22 22:34:21;;;;;;;17.00;14.70;;;15.80;69.60;;;;;;10285523;28;20126;-56
2023/04/22 22:39:22;;;;;;;17.77;14.48;;;15.70;69.50;;;;;;10268115;28;20050;-55
2023/04/22 22:44:22;;;;;;;16.75;12.65;;;15.70;69.60;;;;;;10285192;28;20161;-55
2023/04/22 22:49:23;;;;;;;17.25;13.00;;;15.70;69.40;;;;;;10267718;28;20511;-56
2023/04/22 22:54:24;;;;;;;16.38;13.43;;;15.70;69.40;;;;;;10267146;28;20018;-56
2023/04/22 22:59:25;;;;;;;19.70;15.13;;;15.70;69.40;;;;;;10284623;28;20027;-56
2023/04/22 23:04:26;;;;;;;18.75;14.88;;;15.70;69.40;;;;;;10284372;28;20098;-55
2023/04/22 23:09:27;;;;;;;19.23;15.20;;;15.70;69.30;;;;;;10284259;28;20031;-56
2023/04/22 23:14:28;;;;;;;21.42;17.05;;;15.60;69.20;;;;;;10284606;28;20015;-53
2023/04/22 23:19:31;;;;;;;21.02;16.60;;;15.70;69.20;;;;;;10284014;28;20162;-55
2023/04/22 23:24:32;;;;;;;18.58;14.40;;;15.70;69.20;;;;;;10266592;28;20015;-55
2023/04/22 23:29:33;;;;;;;21.67;15.73;;;15.60;69.10;;;;;;10283890;28;20076;-55
2023/04/22 23:34:37;;;;;;;18.08;14.10;;;15.60;69.10;;;;;;10267779;28;20018;-55
2023/04/22 23:39:39;;;;;;;16.88;14.18;;;15.60;69.20;;;;;;10283641;28;20022;-56
2023/04/22 23:44:40;;;;;;;16.73;13.20;;;15.60;69.30;;;;;;10266299;28;20019;-56
2023/04/22 23:49:40;;;;;;;15.70;12.93;;;15.60;69.30;;;;;;10283103;28;20502;-55
2023/04/22 23:54:43;;;;;;;17.77;14.77;;;15.60;69.50;;;;;;10283476;28;20029;-56
2023/04/22 23:59:44;;;;;;;17.20;14.05;;;15.60;69.60;;;;;;10283306;28;20514;-55
